sensor_id;sensor_type;location;lat;lon;timestamp;pressure;altitude;pressure_sealevel;temperature;humidity
50368;BME280;36281;34.132;-118.018;2023-02-23T00:00:11;99497.06;;;12.98;49.20
50368;BME280;36281;34.132;-118.018;2023-02-23T00:02:52;99501.53;;;12.98;50.68
50368;BME280;36281;34.132;-118.018;2023-02-23T00:05:23;99508.16;;;12.95;52.06
50368;BME280;36281;34.132;-118.018;2023-02-23T00:07:53;99506.19;;;12.90;51.22
50368;BME280;36281;34.132;-118.018;2023-02-23T00:10:23;99511.97;;;12.87;51.38
50368;BME280;36281;34.132;-118.018;2023-02-23T00:12:58;99516.75;;;12.74;50.71
50368;BME280;36281;34.132;-118.018;2023-02-23T00:15:27;99516.31;;;12.65;50.29
50368;BME280;36281;34.132;-118.018;2023-02-23T00:17:59;99508.22;;;12.60;50.61
50368;BME280;36281;34.132;-118.018;2023-02-23T00:20:28;99515.03;;;12.56;49.65
50368;BME280;36281;34.132;-118.018;2023-02-23T00:22:57;99510.06;;;12.48;50.50
50368;BME280;36281;34.132;-118.018;2023-02-23T00:25:26;99500.97;;;12.44;50.73
50368;BME280;36281;34.132;-118.018;2023-02-23T00:27:58;99501.19;;;12.42;52.57
50368;BME280;36281;34.132;-118.018;2023-02-23T00:30:27;99504.66;;;12.42;56.53
50368;BME280;36281;34.132;-118.018;2023-02-23T00:32:56;99503.84;;;12.42;53.71
50368;BME280;36281;34.132;-118.018;2023-02-23T00:35:26;99496.69;;;12.42;53.55
50368;BME280;36281;34.132;-118.018;2023-02-23T00:37:56;99501.19;;;12.42;54.65
50368;BME280;36281;34.132;-118.018;2023-02-23T00:40:25;99503.28;;;12.40;54.37
50368;BME280;36281;34.132;-118.018;2023-02-23T00:42:54;99505.25;;;12.45;54.99
50368;BME280;36281;34.132;-118.018;2023-02-23T00:45:23;99499.94;;;12.45;52.05
50368;BME280;36281;34.132;-118.018;2023-02-23T00:47:52;99505.81;;;12.47;51.57
50368;BME280;36281;34.132;-118.018;2023-02-23T00:50:21;99503.75;;;12.49;52.75
50368;BME280;36281;34.132;-118.018;2023-02-23T00:52:52;99510.06;;;12.48;52.95
50368;BME280;36281;34.132;-118.018;2023-02-23T00:55:21;99524.41;;;12.47;52.33
50368;BME280;36281;34.132;-118.018;2023-02-23T00:57:50;99526.38;;;12.39;51.13
50368;BME280;36281;34.132;-118.018;2023-02-23T01:00:19;99522.81;;;12.34;51.70
50368;BME280;36281;34.132;-118.018;2023-02-23T01:02:49;99525.00;;;12.25;51.49
50368;BME280;36281;34.132;-118.018;2023-02-23T01:05:18;99536.06;;;12.22;52.83
50368;BME280;36281;34.132;-118.018;2023-02-23T01:07:48;99542.75;;;12.13;51.96
50368;BME280;36281;34.132;-118.018;2023-02-23T01:10:19;99539.66;;;12.04;51.58
50368;BME280;36281;34.132;-118.018;2023-02-23T01:12:48;99546.09;;;11.97;51.44
50368;BME280;36281;34.132;-118.018;2023-02-23T01:15:19;99548.59;;;11.92;51.26
50368;BME280;36281;34.132;-118.018;2023-02-23T01:17:48;99549.97;;;11.82;50.69
50368;BME280;36281;34.132;-118.018;2023-02-23T01:20:17;99550.63;;;11.78;51.03
50368;BME280;36281;34.132;-118.018;2023-02-23T01:22:49;99555.59;;;11.74;50.68
50368;BME280;36281;34.132;-118.018;2023-02-23T01:25:23;99556.84;;;11.72;50.72
50368;BME280;36281;34.132;-118.018;2023-02-23T01:27:55;99560.78;;;11.69;50.60
50368;BME280;36281;34.132;-118.018;2023-02-23T01:30:25;99561.88;;;11.61;49.52
50368;BME280;36281;34.132;-118.018;2023-02-23T01:32:54;99571.13;;;11.59;48.71
50368;BME280;36281;34.132;-118.018;2023-02-23T01:35:23;99568.91;;;11.56;49.55
50368;BME280;36281;34.132;-118.018;2023-02-23T01:37:52;99570.38;;;11.52;49.07
50368;BME280;36281;34.132;-118.018;2023-02-23T01:40:24;99571.41;;;11.51;48.17
50368;BME280;36281;34.132;-118.018;2023-02-23T01:42:58;99574.50;;;11.48;49.01
50368;BME280;36281;34.132;-118.018;2023-02-23T01:45:30;99571.50;;;11.44;50.22
50368;BME280;36281;34.132;-118.018;2023-02-23T01:48:04;99575.84;;;11.38;50.03
50368;BME280;36281;34.132;-118.018;2023-02-23T01:50:41;99585.31;;;11.34;50.41
50368;BME280;36281;34.132;-118.018;2023-02-23T01:53:11;99582.50;;;11.29;50.32
50368;BME280;36281;34.132;-118.018;2023-02-23T01:55:42;99597.44;;;11.24;50.65
50368;BME280;36281;34.132;-118.018;2023-02-23T01:58:16;99599.16;;;11.18;51.20
50368;BME280;36281;34.132;-118.018;2023-02-23T02:00:49;99602.25;;;11.15;51.34
50368;BME280;36281;34.132;-118.018;2023-02-23T02:03:27;99593.94;;;11.11;51.37
50368;BME280;36281;34.132;-118.018;2023-02-23T02:05:59;99596.22;;;11.08;51.64
50368;BME280;36281;34.132;-118.018;2023-02-23T02:08:29;99601.34;;;11.03;51.97
50368;BME280;36281;34.132;-118.018;2023-02-23T02:11:01;99594.06;;;10.98;51.68
50368;BME280;36281;34.132;-118.018;2023-02-23T02:13:37;99616.53;;;10.96;52.16
50368;BME280;36281;34.132;-118.018;2023-02-23T02:16:29;99623.72;;;10.88;52.42
50368;BME280;36281;34.132;-118.018;2023-02-23T02:19:39;99631.31;;;10.85;52.13
50368;BME280;36281;34.132;-118.018;2023-02-23T02:25:43;99647.25;;;10.78;52.64
50368;BME280;36281;34.132;-118.018;2023-02-23T02:28:52;99653.00;;;10.75;53.09
50368;BME280;36281;34.132;-118.018;2023-02-23T02:35:10;99654.88;;;10.68;53.99
50368;BME280;36281;34.132;-118.018;2023-02-23T02:37:48;99654.53;;;10.65;54.70
50368;BME280;36281;34.132;-118.018;2023-02-23T02:40:29;99660.47;;;10.60;54.81
50368;BME280;36281;34.132;-118.018;2023-02-23T02:43:04;99670.47;;;10.58;55.42
50368;BME280;36281;34.132;-118.018;2023-02-23T02:45:44;99686.81;;;10.55;55.87
50368;BME280;36281;34.132;-118.018;2023-02-23T02:48:21;99693.09;;;10.54;56.24
50368;BME280;36281;34.132;-118.018;2023-02-23T02:50:56;99692.34;;;10.47;56.10
50368;BME280;36281;34.132;-118.018;2023-02-23T02:53:35;99691.16;;;10.43;56.33
50368;BME280;36281;34.132;-118.018;2023-02-23T02:56:09;99696.91;;;10.40;56.52
50368;BME280;36281;34.132;-118.018;2023-02-23T02:58:39;99697.53;;;10.35;56.69
50368;BME280;36281;34.132;-118.018;2023-02-23T03:01:13;99704.66;;;10.34;56.74
50368;BME280;36281;34.132;-118.018;2023-02-23T03:04:17;99716.91;;;10.29;57.12
50368;BME280;36281;34.132;-118.018;2023-02-23T03:07:09;99711.84;;;10.21;57.23
50368;BME280;36281;34.132;-118.018;2023-02-23T03:10:10;99714.91;;;10.18;57.63
50368;BME280;36281;34.132;-118.018;2023-02-23T03:13:06;99722.03;;;10.17;57.50
50368;BME280;36281;34.132;-118.018;2023-02-23T03:16:15;99719.00;;;10.14;57.65
50368;BME280;36281;34.132;-118.018;2023-02-23T03:19:12;99726.56;;;10.10;57.83
50368;BME280;36281;34.132;-118.018;2023-02-23T03:22:07;99720.28;;;10.04;57.83
50368;BME280;36281;34.132;-118.018;2023-02-23T03:25:01;99720.69;;;10.01;57.76
50368;BME280;36281;34.132;-118.018;2023-02-23T03:27:55;99734.78;;;9.95;56.11
50368;BME280;36281;34.132;-118.018;2023-02-23T03:30:49;99738.84;;;9.91;55.23
50368;BME280;36281;34.132;-118.018;2023-02-23T03:33:44;99737.44;;;9.89;54.83
50368;BME280;36281;34.132;-118.018;2023-02-23T03:36:36;99742.72;;;9.89;55.02
50368;BME280;36281;34.132;-118.018;2023-02-23T03:39:31;99737.88;;;9.86;54.07
50368;BME280;36281;34.132;-118.018;2023-02-23T03:42:22;99737.25;;;9.83;54.05
50368;BME280;36281;34.132;-118.018;2023-02-23T03:45:16;99739.31;;;9.81;53.38
50368;BME280;36281;34.132;-118.018;2023-02-23T03:48:07;99741.75;;;9.76;52.55
50368;BME280;36281;34.132;-118.018;2023-02-23T03:50:59;99741.16;;;9.74;51.46
50368;BME280;36281;34.132;-118.018;2023-02-23T03:53:52;99750.91;;;9.74;51.13
50368;BME280;36281;34.132;-118.018;2023-02-23T03:56:43;99754.19;;;9.69;51.94
50368;BME280;36281;34.132;-118.018;2023-02-23T03:59:35;99751.97;;;9.66;50.04
50368;BME280;36281;34.132;-118.018;2023-02-23T04:02:27;99749.53;;;9.65;49.66
50368;BME280;36281;34.132;-118.018;2023-02-23T04:05:17;99761.94;;;9.64;49.87
50368;BME280;36281;34.132;-118.018;2023-02-23T04:08:08;99766.63;;;9.62;50.13
50368;BME280;36281;34.132;-118.018;2023-02-23T04:11:01;99776.97;;;9.64;50.68
50368;BME280;36281;34.132;-118.018;2023-02-23T04:13:55;99784.09;;;9.63;51.78
50368;BME280;36281;34.132;-118.018;2023-02-23T04:16:28;99784.31;;;9.62;52.81
50368;BME280;36281;34.132;-118.018;2023-02-23T04:19:00;99777.19;;;9.62;53.24
50368;BME280;36281;34.132;-118.018;2023-02-23T04:21:30;99784.09;;;9.63;54.24
50368;BME280;36281;34.132;-118.018;2023-02-23T04:23:59;99782.72;;;9.61;55.37
50368;BME280;36281;34.132;-118.018;2023-02-23T04:26:29;99782.88;;;9.59;55.33
50368;BME280;36281;34.132;-118.018;2023-02-23T04:28:58;99793.91;;;9.56;55.69
50368;BME280;36281;34.132;-118.018;2023-02-23T04:31:27;99798.56;;;9.54;55.35
50368;BME280;36281;34.132;-118.018;2023-02-23T04:33:56;99798.78;;;9.52;55.28
50368;BME280;36281;34.132;-118.018;2023-02-23T04:36:26;99806.13;;;9.50;54.54
50368;BME280;36281;34.132;-118.018;2023-02-23T04:38:55;99812.41;;;9.49;54.41
50368;BME280;36281;34.132;-118.018;2023-02-23T04:41:24;99821.56;;;9.47;54.67
50368;BME280;36281;34.132;-118.018;2023-02-23T04:43:53;99828.47;;;9.48;55.21
50368;BME280;36281;34.132;-118.018;2023-02-23T04:46:22;99831.13;;;9.48;54.91
50368;BME280;36281;34.132;-118.018;2023-02-23T04:48:52;99826.63;;;9.48;55.63
50368;BME280;36281;34.132;-118.018;2023-02-23T04:51:21;99829.50;;;9.47;55.88
50368;BME280;36281;34.132;-118.018;2023-02-23T04:53:51;99839.47;;;9.45;56.38
50368;BME280;36281;34.132;-118.018;2023-02-23T04:56:20;99844.13;;;9.43;56.93
50368;BME280;36281;34.132;-118.018;2023-02-23T04:58:49;99848.19;;;9.39;56.81
50368;BME280;36281;34.132;-118.018;2023-02-23T05:01:18;99854.91;;;9.35;56.93
50368;BME280;36281;34.132;-118.018;2023-02-23T05:03:49;99852.69;;;9.31;57.11
50368;BME280;36281;34.132;-118.018;2023-02-23T05:06:19;99861.00;;;9.28;57.71
50368;BME280;36281;34.132;-118.018;2023-02-23T05:08:50;99855.53;;;9.23;56.78
50368;BME280;36281;34.132;-118.018;2023-02-23T05:11:19;99856.75;;;9.21;57.53
50368;BME280;36281;34.132;-118.018;2023-02-23T05:13:48;99855.94;;;9.20;57.58
50368;BME280;36281;34.132;-118.018;2023-02-23T05:16:18;99855.53;;;9.17;57.67
50368;BME280;36281;34.132;-118.018;2023-02-23T05:18:47;99848.63;;;9.16;57.83
50368;BME280;36281;34.132;-118.018;2023-02-23T05:21:17;99854.09;;;9.14;58.22
50368;BME280;36281;34.132;-118.018;2023-02-23T05:23:46;99859.59;;;9.13;59.08
50368;BME280;36281;34.132;-118.018;2023-02-23T05:26:17;99854.69;;;9.10;58.97
50368;BME280;36281;34.132;-118.018;2023-02-23T05:28:46;99859.59;;;9.06;59.41
50368;BME280;36281;34.132;-118.018;2023-02-23T05:31:16;99853.88;;;9.02;60.00
50368;BME280;36281;34.132;-118.018;2023-02-23T05:33:45;99855.09;;;9.00;60.55
50368;BME280;36281;34.132;-118.018;2023-02-23T05:36:16;99855.09;;;8.93;60.69
50368;BME280;36281;34.132;-118.018;2023-02-23T05:38:46;99861.78;;;8.89;60.80
50368;BME280;36281;34.132;-118.018;2023-02-23T05:41:18;99864.03;;;8.86;61.14
50368;BME280;36281;34.132;-118.018;2023-02-23T05:43:51;99869.69;;;8.83;61.76
50368;BME280;36281;34.132;-118.018;2023-02-23T05:46:22;99862.38;;;8.78;61.78
50368;BME280;36281;34.132;-118.018;2023-02-23T05:48:55;99870.91;;;8.73;62.18
50368;BME280;36281;34.132;-118.018;2023-02-23T05:51:25;99873.94;;;8.70;62.22
50368;BME280;36281;34.132;-118.018;2023-02-23T05:53:55;99889.16;;;8.68;62.37
50368;BME280;36281;34.132;-118.018;2023-02-23T05:56:26;99893.22;;;8.64;63.14
50368;BME280;36281;34.132;-118.018;2023-02-23T05:58:56;99890.78;;;8.63;63.29
50368;BME280;36281;34.132;-118.018;2023-02-23T06:01:26;99894.44;;;8.62;63.86
50368;BME280;36281;34.132;-118.018;2023-02-23T06:03:55;99886.69;;;8.60;64.19
50368;BME280;36281;34.132;-118.018;2023-02-23T06:06:24;99896.66;;;8.58;65.03
50368;BME280;36281;34.132;-118.018;2023-02-23T06:08:53;99903.75;;;8.58;65.12
50368;BME280;36281;34.132;-118.018;2023-02-23T06:11:23;99920.59;;;8.57;64.96
50368;BME280;36281;34.132;-118.018;2023-02-23T06:13:54;99917.16;;;8.56;65.23
50368;BME280;36281;34.132;-118.018;2023-02-23T06:16:23;99910.66;;;8.59;65.84
50368;BME280;36281;34.132;-118.018;2023-02-23T06:18:52;99918.19;;;8.62;66.54
50368;BME280;36281;34.132;-118.018;2023-02-23T06:21:21;99921.63;;;8.62;66.27
50368;BME280;36281;34.132;-118.018;2023-02-23T06:23:50;99917.97;;;8.63;66.55
50368;BME280;36281;34.132;-118.018;2023-02-23T06:26:20;99916.59;;;8.67;66.73
50368;BME280;36281;34.132;-118.018;2023-02-23T06:28:49;99924.13;;;8.70;67.30
50368;BME280;36281;34.132;-118.018;2023-02-23T06:31:20;99923.91;;;8.72;67.49
50368;BME280;36281;34.132;-118.018;2023-02-23T06:33:49;99925.31;;;8.74;67.57
50368;BME280;36281;34.132;-118.018;2023-02-23T06:36:18;99918.22;;;8.75;67.66
50368;BME280;36281;34.132;-118.018;2023-02-23T06:38:48;99918.84;;;8.77;67.46
50368;BME280;36281;34.132;-118.018;2023-02-23T06:41:17;99917.03;;;8.77;67.25
50368;BME280;36281;34.132;-118.018;2023-02-23T06:43:46;99921.50;;;8.77;67.22
50368;BME280;36281;34.132;-118.018;2023-02-23T06:46:15;99919.06;;;8.75;66.92
50368;BME280;36281;34.132;-118.018;2023-02-23T06:48:46;99923.50;;;8.75;66.60
50368;BME280;36281;34.132;-118.018;2023-02-23T06:51:15;99930.59;;;8.74;66.68
50368;BME280;36281;34.132;-118.018;2023-02-23T06:53:44;99928.38;;;8.71;66.67
50368;BME280;36281;34.132;-118.018;2023-02-23T06:56:13;99932.44;;;8.67;66.51
50368;BME280;36281;34.132;-118.018;2023-02-23T06:58:43;99926.72;;;8.64;66.63
50368;BME280;36281;34.132;-118.018;2023-02-23T07:01:12;99933.41;;;8.60;66.87
50368;BME280;36281;34.132;-118.018;2023-02-23T07:03:41;99936.63;;;8.55;66.95
50368;BME280;36281;34.132;-118.018;2023-02-23T07:06:12;99932.56;;;8.52;66.49
50368;BME280;36281;34.132;-118.018;2023-02-23T07:08:41;99942.69;;;8.49;66.56
50368;BME280;36281;34.132;-118.018;2023-02-23T07:11:11;99953.22;;;8.42;67.11
50368;BME280;36281;34.132;-118.018;2023-02-23T07:13:41;99955.44;;;8.39;67.17
50368;BME280;36281;34.132;-118.018;2023-02-23T07:16:10;99960.44;;;8.34;66.75
50368;BME280;36281;34.132;-118.018;2023-02-23T07:18:42;99960.66;;;8.32;66.87
50368;BME280;36281;34.132;-118.018;2023-02-23T07:21:12;99960.84;;;8.31;67.32
50368;BME280;36281;34.132;-118.018;2023-02-23T07:23:41;99963.50;;;8.31;67.15
50368;BME280;36281;34.132;-118.018;2023-02-23T07:26:10;99965.50;;;8.28;67.16
50368;BME280;36281;34.132;-118.018;2023-02-23T07:28:43;99958.00;;;8.25;66.95
50368;BME280;36281;34.132;-118.018;2023-02-23T07:31:12;99958.00;;;8.25;66.77
50368;BME280;36281;34.132;-118.018;2023-02-23T07:33:41;99953.09;;;8.22;66.42
50368;BME280;36281;34.132;-118.018;2023-02-23T07:36:12;99957.72;;;8.20;66.50
50368;BME280;36281;34.132;-118.018;2023-02-23T07:38:41;99966.03;;;8.17;66.53
50368;BME280;36281;34.132;-118.018;2023-02-23T07:41:10;99970.69;;;8.15;66.22
50368;BME280;36281;34.132;-118.018;2023-02-23T07:43:39;99959.53;;;8.13;66.73
50368;BME280;36281;34.132;-118.018;2023-02-23T07:46:08;99961.56;;;8.11;67.10
50368;BME280;36281;34.132;-118.018;2023-02-23T07:48:38;99967.81;;;8.10;66.62
50368;BME280;36281;34.132;-118.018;2023-02-23T07:51:13;99967.19;;;8.08;67.05
50368;BME280;36281;34.132;-118.018;2023-02-23T07:53:45;99955.03;;;8.07;67.49
50368;BME280;36281;34.132;-118.018;2023-02-23T07:56:14;99963.13;;;8.06;67.36
50368;BME280;36281;34.132;-118.018;2023-02-23T07:58:43;99966.16;;;8.02;67.31
50368;BME280;36281;34.132;-118.018;2023-02-23T08:01:12;99964.69;;;8.00;67.56
50368;BME280;36281;34.132;-118.018;2023-02-23T08:03:42;99959.41;;;8.00;67.01
50368;BME280;36281;34.132;-118.018;2023-02-23T08:06:19;99964.69;;;8.00;66.61
50368;BME280;36281;34.132;-118.018;2023-02-23T08:08:48;99967.34;;;8.00;67.31
50368;BME280;36281;34.132;-118.018;2023-02-23T08:11:17;99971.78;;;7.99;66.82
50368;BME280;36281;34.132;-118.018;2023-02-23T08:13:47;99977.28;;;7.98;66.85
50368;BME280;36281;34.132;-118.018;2023-02-23T08:16:16;99979.31;;;7.96;67.20
50368;BME280;36281;34.132;-118.018;2023-02-23T08:18:45;99980.94;;;7.97;67.30
50368;BME280;36281;34.132;-118.018;2023-02-23T08:21:15;99980.72;;;7.98;67.27
50368;BME280;36281;34.132;-118.018;2023-02-23T08:23:45;99986.59;;;8.00;66.92
50368;BME280;36281;34.132;-118.018;2023-02-23T08:26:14;99982.78;;;8.03;67.29
50368;BME280;36281;34.132;-118.018;2023-02-23T08:28:44;99981.41;;;8.07;67.79
50368;BME280;36281;34.132;-118.018;2023-02-23T08:31:14;99986.47;;;8.09;67.87
50368;BME280;36281;34.132;-118.018;2023-02-23T08:33:46;99985.47;;;8.10;67.95
50368;BME280;36281;34.132;-118.018;2023-02-23T08:36:15;99978.19;;;8.12;68.28
50368;BME280;36281;34.132;-118.018;2023-02-23T08:38:46;99981.63;;;8.12;68.21
50368;BME280;36281;34.132;-118.018;2023-02-23T08:41:15;99984.28;;;8.12;68.70
50368;BME280;36281;34.132;-118.018;2023-02-23T08:43:45;99985.91;;;8.13;68.74
50368;BME280;36281;34.132;-118.018;2023-02-23T08:46:14;99980.63;;;8.13;69.28
50368;BME280;36281;34.132;-118.018;2023-02-23T08:48:46;99976.38;;;8.12;69.02
50368;BME280;36281;34.132;-118.018;2023-02-23T08:51:15;99986.91;;;8.12;69.60
50368;BME280;36281;34.132;-118.018;2023-02-23T08:53:46;99985.09;;;8.13;69.46
50368;BME280;36281;34.132;-118.018;2023-02-23T08:56:15;99985.09;;;8.13;69.35
50368;BME280;36281;34.132;-118.018;2023-02-23T08:58:44;99998.28;;;8.13;69.63
50368;BME280;36281;34.132;-118.018;2023-02-23T09:01:16;99991.19;;;8.13;69.68
50368;BME280;36281;34.132;-118.018;2023-02-23T09:03:46;99986.09;;;8.12;69.75
50368;BME280;36281;34.132;-118.018;2023-02-23T09:06:18;99985.91;;;8.13;69.56
50368;BME280;36281;34.132;-118.018;2023-02-23T09:08:49;99979.81;;;8.13;69.55
50368;BME280;36281;34.132;-118.018;2023-02-23T09:11:18;99983.47;;;8.12;69.30
50368;BME280;36281;34.132;-118.018;2023-02-23T09:13:47;99982.44;;;8.13;68.45
50368;BME280;36281;34.132;-118.018;2023-02-23T09:16:16;99980.63;;;8.13;68.44
50368;BME280;36281;34.132;-118.018;2023-02-23T09:18:45;99987.53;;;8.14;68.76
50368;BME280;36281;34.132;-118.018;2023-02-23T09:21:16;99992.81;;;8.14;69.30
50368;BME280;36281;34.132;-118.018;2023-02-23T09:23:55;99991.19;;;8.13;69.35
50368;BME280;36281;34.132;-118.018;2023-02-23T09:26:24;99988.91;;;8.10;69.01
50368;BME280;36281;34.132;-118.018;2023-02-23T09:28:59;99991.94;;;8.07;68.64
50368;BME280;36281;34.132;-118.018;2023-02-23T09:31:28;99987.06;;;8.04;68.67
50368;BME280;36281;34.132;-118.018;2023-02-23T09:33:58;99983.59;;;8.03;69.10
50368;BME280;36281;34.132;-118.018;2023-02-23T09:36:30;99987.06;;;8.04;68.89
50368;BME280;36281;34.132;-118.018;2023-02-23T09:39:00;99983.41;;;8.05;69.16
50368;BME280;36281;34.132;-118.018;2023-02-23T09:41:56;99982.41;;;8.06;69.34
50368;BME280;36281;34.132;-118.018;2023-02-23T09:44:40;99986.69;;;8.07;69.76
50368;BME280;36281;34.132;-118.018;2023-02-23T09:47:30;99983.03;;;8.08;70.33
50368;BME280;36281;34.132;-118.018;2023-02-23T09:50:03;99983.84;;;8.09;70.46
50368;BME280;36281;34.132;-118.018;2023-02-23T09:52:38;99979.19;;;8.11;70.30
50368;BME280;36281;34.132;-118.018;2023-02-23T09:55:12;99972.09;;;8.11;69.80
50368;BME280;36281;34.132;-118.018;2023-02-23T09:57:44;99976.16;;;8.14;70.43
50368;BME280;36281;34.132;-118.018;2023-02-23T10:00:17;99983.06;;;8.15;70.76
50368;BME280;36281;34.132;-118.018;2023-02-23T10:02:58;99977.78;;;8.15;70.77
50368;BME280;36281;34.132;-118.018;2023-02-23T10:05:34;99976.81;;;8.16;71.14
50368;BME280;36281;34.132;-118.018;2023-02-23T10:08:10;99971.31;;;8.17;71.19
50368;BME280;36281;34.132;-118.018;2023-02-23T10:10:47;99963.41;;;8.17;71.00
50368;BME280;36281;34.132;-118.018;2023-02-23T10:13:23;99961.59;;;8.18;71.05
50368;BME280;36281;34.132;-118.018;2023-02-23T10:16:02;99967.66;;;8.18;71.02
50368;BME280;36281;34.132;-118.018;2023-02-23T10:18:37;99967.66;;;8.18;71.36
50368;BME280;36281;34.132;-118.018;2023-02-23T10:21:16;99965.41;;;8.15;71.04
50368;BME280;36281;34.132;-118.018;2023-02-23T10:23:52;99962.16;;;8.13;70.99
50368;BME280;36281;34.132;-118.018;2023-02-23T10:26:24;99959.53;;;8.13;70.78
50368;BME280;36281;34.132;-118.018;2023-02-23T10:28:57;99953.22;;;8.14;70.75
50368;BME280;36281;34.132;-118.018;2023-02-23T10:31:29;99951.03;;;8.18;71.31
50368;BME280;36281;34.132;-118.018;2023-02-23T10:34:03;99943.72;;;8.20;71.86
50368;BME280;36281;34.132;-118.018;2023-02-23T10:36:36;99945.38;;;8.21;71.97
50368;BME280;36281;34.132;-118.018;2023-02-23T10:39:06;99940.72;;;8.23;72.28
50368;BME280;36281;34.132;-118.018;2023-02-23T10:41:38;99934.25;;;8.25;72.26
50368;BME280;36281;34.132;-118.018;2023-02-23T10:44:17;99934.03;;;8.27;71.86
50368;BME280;36281;34.132;-118.018;2023-02-23T10:46:49;99938.31;;;8.28;71.90
50368;BME280;36281;34.132;-118.018;2023-02-23T10:49:24;99931.84;;;8.31;73.04
50368;BME280;36281;34.132;-118.018;2023-02-23T10:51:57;99927.38;;;8.31;73.23
50368;BME280;36281;34.132;-118.018;2023-02-23T10:54:41;99925.09;;;8.28;73.01
50368;BME280;36281;34.132;-118.018;2023-02-23T10:57:25;99933.84;;;8.28;73.24
50368;BME280;36281;34.132;-118.018;2023-02-23T11:00:27;99931.19;;;8.28;73.79
50368;BME280;36281;34.132;-118.018;2023-02-23T11:03:01;99931.41;;;8.27;74.21
50368;BME280;36281;34.132;-118.018;2023-02-23T11:05:35;99927.13;;;8.26;74.21
50368;BME280;36281;34.132;-118.018;2023-02-23T11:08:29;99927.31;;;8.24;74.40
50368;BME280;36281;34.132;-118.018;2023-02-23T11:11:16;99921.22;;;8.24;74.35
50368;BME280;36281;34.132;-118.018;2023-02-23T11:13:50;99928.31;;;8.23;74.34
50368;BME280;36281;34.132;-118.018;2023-02-23T11:16:22;99918.78;;;8.22;74.48
50368;BME280;36281;34.132;-118.018;2023-02-23T11:18:54;99915.34;;;8.22;74.67
50368;BME280;36281;34.132;-118.018;2023-02-23T11:21:26;99917.16;;;8.21;74.61
50368;BME280;36281;34.132;-118.018;2023-02-23T11:23:58;99908.44;;;8.21;75.25
50368;BME280;36281;34.132;-118.018;2023-02-23T11:26:36;99915.34;;;8.22;75.25
50368;BME280;36281;34.132;-118.018;2023-02-23T11:29:15;99917.16;;;8.21;75.09
50368;BME280;36281;34.132;-118.018;2023-02-23T11:31:49;99915.34;;;8.22;75.51
50368;BME280;36281;34.132;-118.018;2023-02-23T11:34:28;99916.97;;;8.23;75.59
50368;BME280;36281;34.132;-118.018;2023-02-23T11:37:02;99929.34;;;8.22;75.64
50368;BME280;36281;34.132;-118.018;2023-02-23T11:39:32;99929.13;;;8.24;75.34
50368;BME280;36281;34.132;-118.018;2023-02-23T11:42:16;99928.31;;;8.23;75.49
50368;BME280;36281;34.132;-118.018;2023-02-23T11:45:04;99922.84;;;8.25;75.06
50368;BME280;36281;34.132;-118.018;2023-02-23T11:47:38;99928.13;;;8.25;75.37
50368;BME280;36281;34.132;-118.018;2023-02-23T11:50:20;99932.41;;;8.26;74.94
50368;BME280;36281;34.132;-118.018;2023-02-23T11:52:58;99935.06;;;8.26;75.31
50368;BME280;36281;34.132;-118.018;2023-02-23T11:55:29;99944.59;;;8.27;75.05
50368;BME280;36281;34.132;-118.018;2023-02-23T11:58:20;99946.22;;;8.28;75.14
50368;BME280;36281;34.132;-118.018;2023-02-23T12:00:57;99948.84;;;8.28;74.78
50368;BME280;36281;34.132;-118.018;2023-02-23T12:03:28;99942.97;;;8.26;75.13
50368;BME280;36281;34.132;-118.018;2023-02-23T12:05:58;99944.78;;;8.25;74.75
50368;BME280;36281;34.132;-118.018;2023-02-23T12:08:36;99945.78;;;8.24;74.47
50368;BME280;36281;34.132;-118.018;2023-02-23T12:11:12;99958.00;;;8.25;74.95
50368;BME280;36281;34.132;-118.018;2023-02-23T12:13:45;99955.53;;;8.24;75.01
50368;BME280;36281;34.132;-118.018;2023-02-23T12:16:21;99958.97;;;8.24;75.01
50368;BME280;36281;34.132;-118.018;2023-02-23T12:18:54;99958.97;;;8.24;75.65
50368;BME280;36281;34.132;-118.018;2023-02-23T12:21:29;99955.72;;;8.22;75.10
50368;BME280;36281;34.132;-118.018;2023-02-23T12:24:14;99954.72;;;8.23;74.96
50368;BME280;36281;34.132;-118.018;2023-02-23T12:26:49;99951.25;;;8.23;75.08
50368;BME280;36281;34.132;-118.018;2023-02-23T12:29:24;99954.72;;;8.23;75.06
50368;BME280;36281;34.132;-118.018;2023-02-23T12:32:00;99958.16;;;8.24;74.71
50368;BME280;36281;34.132;-118.018;2023-02-23T12:34:34;99962.03;;;8.21;75.02
50368;BME280;36281;34.132;-118.018;2023-02-23T12:37:28;99965.63;;;8.20;75.05
50368;BME280;36281;34.132;-118.018;2023-02-23T12:40:13;99961.38;;;8.19;74.26
50368;BME280;36281;34.132;-118.018;2023-02-23T12:42:55;99970.91;;;8.20;74.94
50368;BME280;36281;34.132;-118.018;2023-02-23T12:45:34;99972.13;;;8.18;74.96
50368;BME280;36281;34.132;-118.018;2023-02-23T12:48:13;99968.88;;;8.16;75.10
50368;BME280;36281;34.132;-118.018;2023-02-23T12:50:51;99966.03;;;8.17;75.14
50368;BME280;36281;34.132;-118.018;2023-02-23T12:53:24;99961.59;;;8.18;75.29
50368;BME280;36281;34.132;-118.018;2023-02-23T12:56:09;99960.13;;;8.15;75.72
50368;BME280;36281;34.132;-118.018;2023-02-23T12:58:44;99959.16;;;8.16;75.37
50368;BME280;36281;34.132;-118.018;2023-02-23T13:01:20;99968.03;;;8.15;75.64
50368;BME280;36281;34.132;-118.018;2023-02-23T13:04:25;99964.78;;;8.13;76.04
50368;BME280;36281;34.132;-118.018;2023-02-23T13:07:02;99970.28;;;8.12;75.47
50368;BME280;36281;34.132;-118.018;2023-02-23T13:09:43;99965.16;;;8.10;75.79
50368;BME280;36281;34.132;-118.018;2023-02-23T13:12:26;99977.75;;;8.08;74.93
50368;BME280;36281;34.132;-118.018;2023-02-23T13:15:02;99969.84;;;8.08;75.30
50368;BME280;36281;34.132;-118.018;2023-02-23T13:17:42;99974.31;;;8.08;74.88
50368;BME280;36281;34.132;-118.018;2023-02-23T13:20:19;99976.13;;;8.07;75.02
50368;BME280;36281;34.132;-118.018;2023-02-23T13:22:57;99980.97;;;8.03;74.81